Time;durP1;ratioP1;P1;durP2;ratioP2;P2;SDS_P1;SDS_P2;PMS_P1;PMS_P2;Temp;Humidity;BMP_temperature;BMP_pressure;BME280_temperature;BME280_humidity;BME280_pressure;Samples;Min_cycle;Max_cycle;Signal;HPM_P1;HPM_P2
2023/01/18 00:01:00;;;;;;;14.95;7.82;;;;;;;5.83;55.25;99056.94;5048603;28;20080;-68
2023/01/18 00:03:32;;;;;;;14.57;7.22;;;;;;;5.84;55.18;99060.41;5044129;28;20072;-69
2023/01/18 00:06:00;;;;;;;13.30;7.50;;;;;;;5.83;55.33;99056.13;5048257;28;20041;-69
2023/01/18 00:08:30;;;;;;;14.43;7.78;;;;;;;5.84;55.04;99055.09;5044765;28;20049;-69
2023/01/18 00:11:02;;;;;;;17.02;7.80;;;;;;;5.84;55.26;99058.56;5034960;28;20175;-69
2023/01/18 00:13:30;;;;;;;15.45;6.93;;;;;;;5.82;55.33;99057.97;5043511;28;20124;-69
2023/01/18 00:16:02;;;;;;;11.27;6.40;;;;;;;5.82;55.16;99057.16;5044516;28;20458;-69
2023/01/18 00:18:30;;;;;;;12.85;7.28;;;;;;;5.80;54.98;99060.06;5046516;28;20056;-69
2023/01/18 00:21:01;;;;;;;17.45;7.28;;;;;;;5.79;55.09;99062.97;5041378;28;20064;-69
2023/01/18 00:23:30;;;;;;;13.93;7.47;;;;;;;5.76;55.28;99061.59;5047273;28;20045;-69
2023/01/18 00:26:01;;;;;;;13.40;6.75;;;;;;;5.78;55.00;99072.00;5040359;28;20129;-69
2023/01/18 00:28:29;;;;;;;16.35;8.05;;;;;;;5.76;55.13;99066.91;5038554;28;20121;-69
2023/01/18 00:30:57;;;;;;;14.43;7.32;;;;;;;5.78;55.08;99077.34;5050510;28;20051;-69
2023/01/18 00:33:25;;;;;;;15.07;6.90;;;;;;;5.76;55.15;99066.91;5043141;28;20113;-69
2023/01/18 00:35:56;;;;;;;11.73;6.70;;;;;;;5.75;55.19;99069.81;5045146;28;20141;-69
2023/01/18 00:38:24;;;;;;;12.63;7.03;;;;;;;5.75;55.00;99069.81;5044778;28;20396;-69
2023/01/18 00:40:53;;;;;;;12.60;7.65;;;;;;;5.72;55.16;99076.41;5044929;28;20338;-69
2023/01/18 00:43:39;;;;;;;13.25;6.85;;;;;;;5.73;55.30;99075.38;5047142;28;20049;-69
2023/01/18 00:46:09;;;;;;;15.77;7.75;;;;;;;5.71;55.28;99077.47;5044836;28;20088;-69
2023/01/18 00:48:38;;;;;;;12.55;7.57;;;;;;;5.69;55.26;99071.56;5035440;28;20075;-70
2023/01/18 00:51:07;;;;;;;14.52;7.40;;;;;;;5.68;55.15;99077.94;5049736;28;20056;-69
2023/01/18 00:53:36;;;;;;;12.10;6.30;;;;;;;5.67;55.10;99088.81;5047405;28;20575;-70
2023/01/18 00:56:07;;;;;;;15.27;6.90;;;;;;;5.66;55.21;99084.53;5045539;28;20081;-69
2023/01/18 00:58:36;;;;;;;12.23;7.25;;;;;;;5.66;54.81;99087.19;5045374;28;20052;-69
2023/01/18 01:01:04;;;;;;;18.15;7.35;;;;;;;5.67;55.11;99091.50;5041313;28;20525;-69
2023/01/18 01:06:42;;;;;;;15.25;6.40;;;;;;;5.65;55.18;99085.59;5041298;28;20045;-69
2023/01/18 01:06:43;;;;;;;11.55;6.82;;;;;;;5.64;54.98;99089.28;5045378;28;20049;-70
2023/01/18 01:09:11;;;;;;;14.48;6.72;;;;;;;5.64;55.16;99091.97;5049402;28;20412;-69
2023/01/18 01:12:31;;;;;;;14.88;6.13;;;;;;;5.62;55.06;99092.19;5034368;28;20045;-69
2023/01/18 01:28:16;;;;;;;12.55;6.53;;;;;;;5.55;55.19;99097.63;5050040;28;20130;-70
2023/01/18 01:30:44;;;;;;;13.30;6.47;;;;;;;5.54;54.94;99089.88;5040462;28;20080;-70
2023/01/18 01:33:12;;;;;;;12.52;6.20;;;;;;;5.54;54.76;99105.88;5042916;28;20045;-69
2023/01/18 01:35:40;;;;;;;17.00;6.60;;;;;;;5.53;54.77;99107.72;5038487;28;20045;-69
2023/01/18 01:38:07;;;;;;;17.60;7.43;;;;;;;5.51;54.90;99106.31;5041127;28;20135;-70
2023/01/18 01:40:35;;;;;;;20.45;6.78;;;;;;;5.51;54.76;99111.66;5038479;28;20052;-69
2023/01/18 01:43:03;;;;;;;12.27;6.43;;;;;;;5.50;54.59;99110.03;5044295;28;20045;-70
2023/01/18 01:45:32;;;;;;;13.98;5.85;;;;;;;5.49;54.81;99111.06;5040067;28;20072;-70
2023/01/18 01:48:00;;;;;;;10.25;6.07;;;;;;;5.49;54.91;99113.72;5041850;28;20163;-70
2023/01/18 01:50:34;;;;;;;11.75;5.40;;;;;;;5.48;54.80;99117.44;5040900;28;20121;-70
2023/01/18 01:53:03;;;;;;;17.73;6.53;;;;;;;5.47;54.89;99113.16;5033249;28;20081;-70
2023/01/18 01:55:35;;;;;;;12.73;6.05;;;;;;;5.46;54.62;99125.66;5037235;28;20057;-70
2023/01/18 01:58:06;;;;;;;11.30;6.40;;;;;;;5.45;54.70;99124.03;5048010;28;20109;-70
2023/01/18 02:00:35;;;;;;;12.05;5.60;;;;;;;5.44;54.66;99117.09;5039436;28;20052;-69
2023/01/18 02:03:05;;;;;;;11.18;5.93;;;;;;;5.44;54.77;99124.28;5032526;28;20042;-70
2023/01/18 02:05:36;;;;;;;12.82;5.25;;;;;;;5.42;54.59;99121.03;5052388;28;20056;-70
2023/01/18 02:08:04;;;;;;;9.95;5.43;;;;;;;5.40;55.02;99123.94;5038451;28;20136;-70
2023/01/18 02:10:32;;;;;;;11.90;5.85;;;;;;;5.38;54.52;99118.00;5042208;28;20076;-70
2023/01/18 02:13:00;;;;;;;12.73;6.57;;;;;;;5.38;54.85;99122.53;5045012;28;20076;-70
2023/01/18 02:15:35;;;;;;;9.52;5.72;;;;;;;5.38;54.66;99115.34;5037000;28;20053;-69
2023/01/18 02:18:19;;;;;;;14.00;6.03;;;;;;;5.36;54.49;99120.09;5037475;28;20256;-69
2023/01/18 02:21:22;;;;;;;13.52;6.13;;;;;;;5.36;54.95;99117.44;5039266;28;20128;-70
2023/01/18 02:24:32;;;;;;;12.38;5.93;;;;;;;5.36;54.64;99117.44;5030177;28;20048;-70
2023/01/18 02:27:07;;;;;;;9.75;6.25;;;;;;;5.36;54.69;99116.63;5034418;28;20061;-68
2023/01/18 02:29:50;;;;;;;12.48;5.88;;;;;;;5.34;55.08;99124.03;5040770;28;20049;-70
2023/01/18 02:32:26;;;;;;;12.18;5.47;;;;;;;5.34;54.73;99124.03;5039499;28;20045;-70
2023/01/18 02:35:01;;;;;;;9.95;5.72;;;;;;;5.33;54.92;99125.88;5046293;28;20087;-70
2023/01/18 02:37:39;;;;;;;10.02;5.38;;;;;;;5.34;54.37;99126.69;5042558;28;20057;-69
2023/01/18 02:40:15;;;;;;;14.02;6.15;;;;;;;5.33;55.00;99128.53;5041205;28;20691;-69
2023/01/18 02:48:23;;;;;;;13.38;6.30;;;;;;;5.30;54.69;99138.84;5030571;28;20100;-70
2023/01/18 02:50:51;;;;;;;9.18;4.85;;;;;;;5.29;54.35;99145.22;5042941;28;20048;-68
2023/01/18 02:53:19;;;;;;;9.10;5.05;;;;;;;5.29;54.58;99145.22;5040994;28;20065;-69
2023/01/18 02:55:53;;;;;;;10.25;5.35;;;;;;;5.28;54.54;99135.59;5042160;28;20056;-69
2023/01/18 02:58:27;;;;;;;12.00;5.70;;;;;;;5.28;54.58;99140.94;5042613;28;20049;-68
2023/01/18 03:01:02;;;;;;;10.48;5.30;;;;;;;5.27;54.63;99142.78;5038767;28;20566;-68
2023/01/18 03:03:30;;;;;;;11.88;5.57;;;;;;;5.27;54.55;99142.78;5036878;28;20046;-68
2023/01/18 03:06:00;;;;;;;8.27;5.35;;;;;;;5.26;55.08;99140.34;5039493;28;20049;-68
2023/01/18 03:08:35;;;;;;;10.88;5.00;;;;;;;5.24;54.58;99146.72;5040347;28;20046;-68
2023/01/18 03:11:07;;;;;;;10.00;6.22;;;;;;;5.23;54.85;99150.41;5047773;28;20045;-68
2023/01/18 03:13:50;;;;;;;12.38;5.72;;;;;;;5.22;54.79;99148.78;5056203;28;20039;-68
2023/01/18 03:16:22;;;;;;;11.13;5.60;;;;;;;5.19;54.48;99146.63;5057136;28;20059;-68
2023/01/18 03:19:01;;;;;;;8.50;5.40;;;;;;;5.21;54.53;99152.50;5041521;28;20046;-68
2023/01/18 03:21:37;;;;;;;14.93;6.13;;;;;;;5.19;54.64;99145.81;5046838;28;20113;-68
2023/01/18 03:24:07;;;;;;;10.38;5.57;;;;;;;5.19;54.38;99154.59;5049695;28;20071;-68
2023/01/18 03:26:40;;;;;;;11.30;5.13;;;;;;;5.21;54.40;99157.00;5039396;28;20056;-68
2023/01/18 03:34:53;;;;;;;12.27;5.63;;;;;;;5.16;54.69;99159.56;5046705;28;20117;-68
2023/01/18 03:37:26;;;;;;;12.20;5.57;;;;;;;5.15;54.81;99158.78;5043608;28;20083;-68
2023/01/18 03:39:58;;;;;;;11.57;5.75;;;;;;;5.14;54.54;99159.81;5048695;28;20140;-68
2023/01/18 03:42:28;;;;;;;10.43;5.30;;;;;;;5.15;54.57;99165.94;5040703;28;20049;-68
2023/01/18 03:45:02;;;;;;;10.90;5.85;;;;;;;5.13;54.96;99173.34;5048170;28;20045;-67
2023/01/18 03:47:32;;;;;;;10.43;5.72;;;;;;;5.10;54.34;99171.94;5044050;28;20049;-68
2023/01/18 03:50:00;;;;;;;9.93;5.63;;;;;;;5.10;54.34;99174.63;5047447;28;20152;-68
2023/01/18 03:52:36;;;;;;;11.55;6.15;;;;;;;5.10;54.86;99177.28;5053304;28;20049;-68
2023/01/18 03:55:09;;;;;;;12.00;6.07;;;;;;;5.10;54.56;99182.59;5038413;28;20053;-68
2023/01/18 03:57:43;;;;;;;10.07;6.18;;;;;;;5.08;54.25;99184.69;5045554;28;20054;-68
2023/01/18 04:00:13;;;;;;;10.45;5.95;;;;;;;5.06;54.29;99185.94;5043199;28;20520;-67
2023/01/18 04:02:45;;;;;;;10.07;6.20;;;;;;;5.07;54.68;99192.91;5044843;28;20037;-68
2023/01/18 04:05:12;;;;;;;10.32;6.05;;;;;;;5.06;54.62;99194.75;5046069;28;20045;-68
2023/01/18 04:07:41;;;;;;;10.75;5.75;;;;;;;5.07;55.08;99200.88;5049368;28;20053;-68
2023/01/18 04:10:10;;;;;;;13.70;6.15;;;;;;;5.05;54.80;99197.63;5043155;28;20080;-68
2023/01/18 04:12:38;;;;;;;16.95;6.32;;;;;;;5.06;54.38;99204.59;5046093;28;20045;-68
2023/01/18 04:15:06;;;;;;;13.35;6.15;;;;;;;5.03;54.54;99208.50;5046004;28;20049;-68
2023/01/18 04:17:34;;;;;;;15.23;5.88;;;;;;;5.02;54.35;99214.88;5038369;28;20329;-68
2023/01/18 04:20:04;;;;;;;10.52;6.05;;;;;;;5.03;54.39;99213.84;5044014;28;20083;-69
2023/01/18 04:22:32;;;;;;;11.68;6.10;;;;;;;5.01;54.92;99215.09;5043971;28;20077;-68
2023/01/18 04:25:00;;;;;;;14.77;7.35;;;;;;;5.02;54.48;99211.41;5042017;28;20124;-68
2023/01/18 04:27:27;;;;;;;14.20;6.80;;;;;;;5.01;54.64;99215.09;5041819;28;20050;-69
2023/01/18 04:29:57;;;;;;;11.35;5.90;;;;;;;4.99;54.75;99211.84;5037940;28;20135;-69
2023/01/18 04:32:25;;;;;;;10.68;6.32;;;;;;;4.98;54.65;99216.34;5043711;28;20128;-68
2023/01/18 04:34:52;;;;;;;12.10;6.93;;;;;;;4.98;54.56;99211.03;5052143;28;20076;-69
2023/01/18 04:37:29;;;;;;;14.57;6.38;;;;;;;4.97;54.93;99212.06;5043252;28;20056;-68
2023/01/18 04:39:57;;;;;;;11.88;7.25;;;;;;;4.94;54.99;99207.19;5041846;28;20281;-67
2023/01/18 04:42:24;;;;;;;12.60;6.47;;;;;;;4.96;54.52;99206.97;5041061;28;20475;-68
2023/01/18 04:44:52;;;;;;;12.95;6.32;;;;;;;4.95;54.68;99216.00;5042000;28;20131;-68
2023/01/18 04:47:20;;;;;;;12.75;6.57;;;;;;;4.95;54.47;99216.81;5044230;28;20060;-69
2023/01/18 04:49:48;;;;;;;16.95;6.93;;;;;;;4.95;55.11;99214.16;5039764;28;20127;-69
2023/01/18 04:52:15;;;;;;;12.45;7.18;;;;;;;4.94;55.17;99220.50;5054713;28;20163;-69
2023/01/18 04:54:47;;;;;;;13.05;6.95;;;;;;;4.93;54.63;99224.22;5050402;28;20055;-68
2023/01/18 04:57:14;;;;;;;14.50;7.10;;;;;;;4.94;55.05;99225.84;5057253;28;20112;-69
2023/01/18 04:59:44;;;;;;;12.30;6.70;;;;;;;4.92;54.50;99233.22;5047774;28;20116;-69
2023/01/18 05:02:13;;;;;;;12.93;6.90;;;;;;;4.92;54.60;99238.56;5036310;28;20719;-69
2023/01/18 05:04:42;;;;;;;12.98;8.07;;;;;;;4.89;54.96;99233.69;5053554;28;20201;-69
2023/01/18 05:07:10;;;;;;;16.13;7.53;;;;;;;4.90;55.08;99236.13;5044581;28;20057;-69
2023/01/18 05:09:38;;;;;;;12.35;7.60;;;;;;;4.90;55.01;99237.97;5053585;28;20051;-69
2023/01/18 05:12:07;;;;;;;13.80;7.95;;;;;;;4.90;54.85;99243.28;5052590;28;20067;-68
2023/01/18 05:14:35;;;;;;;13.60;8.02;;;;;;;4.87;54.67;99236.56;5039970;28;20480;-69
2023/01/18 05:17:02;;;;;;;11.02;7.20;;;;;;;4.88;54.70;99248.03;5043802;28;20050;-69
2023/01/18 05:19:30;;;;;;;11.60;7.80;;;;;;;4.88;54.48;99250.69;5043625;28;20246;-69
2023/01/18 05:21:58;;;;;;;13.82;8.10;;;;;;;4.87;55.00;99254.38;5045025;28;20076;-68
2023/01/18 05:24:26;;;;;;;13.45;7.60;;;;;;;4.87;54.76;99251.72;5041079;28;20045;-69
2023/01/18 05:26:56;;;;;;;12.98;7.95;;;;;;;4.88;54.81;99264.00;5042724;28;20069;-71
2023/01/18 05:29:26;;;;;;;12.55;7.30;;;;;;;4.86;54.54;99255.41;5041157;28;20091;-69
2023/01/18 05:31:53;;;;;;;12.98;7.60;;;;;;;4.87;54.95;99254.38;5041585;28;20049;-70
2023/01/18 05:34:21;;;;;;;14.57;7.38;;;;;;;4.86;54.66;99260.75;5055382;28;20060;-70
2023/01/18 05:36:49;;;;;;;15.55;7.43;;;;;;;4.85;55.10;99267.91;5044392;28;20561;-68
2023/01/18 05:39:16;;;;;;;12.60;7.25;;;;;;;4.84;54.69;99262.81;5046327;28;20052;-68
2023/01/18 05:41:44;;;;;;;13.68;7.30;;;;;;;4.83;55.22;99258.53;5049950;28;20063;-69
2023/01/18 05:44:12;;;;;;;16.02;8.30;;;;;;;4.84;54.74;99265.47;5054683;28;20112;-70
2023/01/18 05:46:41;;;;;;;15.05;8.18;;;;;;;4.84;54.33;99276.94;5040970;28;20069;-70
2023/01/18 05:49:09;;;;;;;14.27;7.95;;;;;;;4.84;55.19;99278.78;5044220;28;20056;-70
2023/01/18 05:51:36;;;;;;;12.95;8.20;;;;;;;4.83;54.78;99283.28;5047399;28;20107;-70
2023/01/18 05:54:04;;;;;;;13.30;7.68;;;;;;;4.85;55.23;99283.06;5036531;28;20057;-68
2023/01/18 05:56:32;;;;;;;10.85;6.97;;;;;;;4.85;55.01;99283.88;5048088;28;20044;-70
2023/01/18 05:59:00;;;;;;;13.02;8.20;;;;;;;4.85;55.41;99299.03;5052325;28;20132;-68
2023/01/18 06:01:28;;;;;;;16.38;8.32;;;;;;;4.83;55.12;99301.13;5050153;28;20055;-70
2023/01/18 06:03:57;;;;;;;13.27;7.50;;;;;;;4.86;54.92;99300.66;5042125;28;20063;-70
2023/01/18 06:06:25;;;;;;;11.52;7.07;;;;;;;4.94;54.60;99304.88;5044437;28;20041;-70
2023/01/18 06:08:53;;;;;;;16.70;7.97;;;;;;;4.94;54.92;99300.38;5041356;28;20049;-70
2023/01/18 06:11:20;;;;;;;18.45;8.00;;;;;;;4.96;54.45;99305.47;5048638;28;20045;-70
2023/01/18 06:13:48;;;;;;;12.55;7.40;;;;;;;4.93;54.66;99312.06;5044334;28;20353;-69
2023/01/18 06:16:16;;;;;;;16.65;8.05;;;;;;;4.98;54.55;99306.88;5036951;28;20037;-68
2023/01/18 06:18:43;;;;;;;14.52;7.90;;;;;;;5.09;54.35;99318.63;5047578;28;20044;-68
2023/01/18 06:21:13;;;;;;;14.05;7.28;;;;;;;5.26;54.36;99314.28;5039708;28;20049;-70
2023/01/18 06:23:40;;;;;;;15.48;8.80;;;;;;;5.43;53.54;99325.13;5045703;28;20049;-71
2023/01/18 06:26:08;;;;;;;12.68;7.88;;;;;;;5.60;52.92;99334.09;5041228;28;20486;-68
2023/01/18 06:28:36;;;;;;;15.75;7.57;;;;;;;5.71;52.62;99324.53;5036913;28;20087;-67
2023/01/18 06:31:06;;;;;;;14.52;7.57;;;;;;;5.90;51.96;99339.44;5048123;28;20073;-68
2023/01/18 06:33:34;;;;;;;13.70;7.60;;;;;;;6.10;51.46;99331.13;4696878;28;10000550;-69
2023/01/18 06:36:02;;;;;;;13.73;7.18;;;;;;;6.18;51.26;99331.63;5042614;28;20067;-67
2023/01/18 06:38:32;;;;;;;17.45;7.40;;;;;;;6.35;51.11;99334.41;5044430;28;20381;-67
2023/01/18 06:40:59;;;;;;;17.02;7.60;;;;;;;6.41;50.82;99341.50;5038746;28;20045;-67
2023/01/18 06:43:28;;;;;;;18.95;8.27;;;;;;;6.37;50.64;99348.34;5037134;28;20112;-67
2023/01/18 06:45:56;;;;;;;13.55;7.28;;;;;;;6.20;51.49;99348.19;5041983;28;20348;-67
2023/01/18 06:48:26;;;;;;;13.73;8.38;;;;;;;6.00;51.32;99349.56;5029254;28;20069;-68
2023/01/18 06:50:56;;;;;;;14.07;7.78;;;;;;;5.81;52.24;99354.91;5047259;28;20081;-67
2023/01/18 06:53:25;;;;;;;14.38;7.20;;;;;;;5.67;52.65;99356.16;5041262;28;20045;-66
2023/01/18 06:55:56;;;;;;;15.15;8.88;;;;;;;5.54;52.98;99351.81;5033665;28;20172;-66
2023/01/18 06:58:25;;;;;;;12.88;7.15;;;;;;;5.42;53.31;99356.28;5037280;28;20147;-65
2023/01/18 07:00:57;;;;;;;10.45;6.50;;;;;;;5.38;53.30;99362.28;5043736;28;20323;-67
2023/01/18 07:03:25;;;;;;;10.95;7.15;;;;;;;5.32;53.45;99368.50;5033500;28;20050;-67
2023/01/18 07:05:54;;;;;;;13.43;7.05;;;;;;;5.27;53.79;99374.50;5034751;28;20117;-67
2023/01/18 07:08:22;;;;;;;12.43;7.47;;;;;;;5.20;53.91;99379.91;5034402;28;20073;-64
2023/01/18 07:10:51;;;;;;;16.10;8.38;;;;;;;5.18;53.90;99383.84;5035306;28;20041;-65
2023/01/18 07:13:21;;;;;;;17.08;8.00;;;;;;;5.12;54.00;99379.41;5038200;28;20129;-65
2023/01/18 07:15:55;;;;;;;13.40;7.20;;;;;;;5.00;54.55;99387.34;5039962;28;20137;-65
2023/01/18 07:18:23;;;;;;;13.18;8.32;;;;;;;4.97;54.36;99386.97;5037652;28;20245;-65
2023/01/18 07:20:57;;;;;;;13.00;7.05;;;;;;;4.92;54.45;99395.63;5050159;28;20052;-65
2023/01/18 07:23:25;;;;;;;13.45;7.78;;;;;;;4.88;54.85;99391.75;5038103;28;20468;-65
2023/01/18 07:26:02;;;;;;;14.43;7.43;;;;;;;4.88;54.75;99397.09;5044736;28;20076;-65
2023/01/18 07:28:32;;;;;;;13.18;7.35;;;;;;;4.86;54.98;99396.50;5055680;28;20045;-64
2023/01/18 07:31:01;;;;;;;14.55;7.53;;;;;;;4.85;54.57;99401.00;5041395;28;20057;-64
2023/01/18 07:33:30;;;;;;;15.68;7.68;;;;;;;4.83;54.74;99402.25;5040507;28;20055;-64
2023/01/18 07:35:58;;;;;;;15.25;8.27;;;;;;;4.82;54.75;99403.28;5035029;28;20066;-64
2023/01/18 07:38:26;;;;;;;12.52;6.93;;;;;;;4.80;55.08;99408.84;5034627;28;20116;-64
2023/01/18 07:41:00;;;;;;;13.63;7.75;;;;;;;4.78;55.15;99413.56;5042032;28;20080;-65
2023/01/18 07:43:28;;;;;;;15.00;7.07;;;;;;;4.77;54.88;99414.59;5041665;28;20041;-64
2023/01/18 07:45:58;;;;;;;14.02;7.60;;;;;;;4.74;55.47;99415.03;5039037;28;20064;-64
2023/01/18 07:48:27;;;;;;;15.93;8.35;;;;;;;4.74;54.90;99424.84;5040630;28;20087;-64
2023/01/18 07:50:56;;;;;;;12.95;7.30;;;;;;;4.72;55.64;99418.94;5044907;28;20136;-64
2023/01/18 07:53:25;;;;;;;17.30;8.88;;;;;;;4.71;55.29;99419.97;5039165;28;20132;-65
2023/01/18 07:55:53;;;;;;;21.95;8.63;;;;;;;4.69;55.39;99428.19;5034100;28;20082;-64
2023/01/18 07:58:22;;;;;;;12.95;6.60;;;;;;;4.70;55.27;99431.66;5052277;28;20064;-64
2023/01/18 08:00:50;;;;;;;13.45;6.65;;;;;;;4.68;55.82;99434.53;5053711;28;20080;-63
2023/01/18 08:03:20;;;;;;;17.25;7.57;;;;;;;4.68;55.78;99439.03;5048461;28;20042;-64
2023/01/18 08:05:48;;;;;;;15.07;6.95;;;;;;;4.66;55.30;99436.59;5039985;28;20081;-64
2023/01/18 08:08:17;;;;;;;14.98;7.78;;;;;;;4.65;55.86;99440.28;5047233;28;20403;-64
2023/01/18 08:10:45;;;;;;;16.77;6.97;;;;;;;4.63;55.85;99442.34;5045826;28;20561;-64
2023/01/18 08:13:12;;;;;;;12.75;7.68;;;;;;;4.64;55.85;99454.63;5044268;28;20558;-64
2023/01/18 08:15:40;;;;;;;12.77;7.53;;;;;;;4.63;55.53;99450.34;5044080;28;20056;-64
2023/01/18 08:18:08;;;;;;;13.07;8.15;;;;;;;4.61;56.08;99443.59;5039897;28;20586;-65
2023/01/18 08:20:37;;;;;;;11.23;7.00;;;;;;;4.63;56.01;99450.34;5033405;28;20047;-63
2023/01/18 08:23:05;;;;;;;12.90;7.68;;;;;;;4.64;55.67;99457.28;4698706;28;9999841;-64
2023/01/18 08:25:33;;;;;;;12.27;7.28;;;;;;;4.62;55.37;99467.34;5044818;28;20046;-63
2023/01/18 08:28:01;;;;;;;12.57;7.10;;;;;;;4.60;55.71;99461.41;5037904;28;20125;-63
2023/01/18 08:30:33;;;;;;;13.75;7.50;;;;;;;4.60;55.95;99464.06;5047149;28;20060;-63
2023/01/18 08:33:02;;;;;;;16.10;7.95;;;;;;;4.61;55.58;99473.69;5036077;28;20049;-63
2023/01/18 08:35:32;;;;;;;14.98;7.85;;;;;;;4.61;55.53;99475.53;5042599;28;20108;-63
2023/01/18 08:38:01;;;;;;;11.27;7.25;;;;;;;4.61;55.52;99468.38;5050644;28;20078;-63
2023/01/18 08:40:30;;;;;;;15.13;7.05;;;;;;;4.60;55.58;99466.72;5063642;28;20053;-63
2023/01/18 08:43:00;;;;;;;11.98;6.93;;;;;;;4.63;55.53;99476.13;5051759;28;20120;-63
2023/01/18 08:45:28;;;;;;;12.85;7.47;;;;;;;4.62;55.57;99477.97;5042232;28;20052;-63
2023/01/18 08:47:57;;;;;;;10.85;7.03;;;;;;;4.62;55.50;99480.63;5052630;28;20101;-63
2023/01/18 08:50:25;;;;;;;13.75;6.90;;;;;;;4.60;55.96;99490.69;5035832;28;20088;-63
2023/01/18 08:52:53;;;;;;;13.65;6.32;;;;;;;4.61;55.67;99494.16;5047646;28;20057;-63
2023/01/18 08:55:22;;;;;;;11.55;7.18;;;;;;;4.57;55.78;99496.44;5058941;28;20055;-63
2023/01/18 08:57:53;;;;;;;11.07;7.85;;;;;;;4.58;55.80;99498.88;5052234;28;20077;-63
2023/01/18 09:00:22;;;;;;;11.05;6.80;;;;;;;4.61;56.28;99510.94;5061834;28;20131;-63
2023/01/18 09:02:53;;;;;;;10.68;6.53;;;;;;;4.62;55.95;99506.44;5045851;28;20092;-63
2023/01/18 09:05:21;;;;;;;12.02;6.40;;;;;;;4.72;55.87;99499.59;5049853;28;20110;-63
2023/01/18 09:07:49;;;;;;;10.90;6.63;;;;;;;4.86;55.57;99505.63;5044576;28;20119;-63
2023/01/18 09:10:18;;;;;;;15.25;7.13;;;;;;;5.00;54.93;99501.81;5050261;28;20144;-63
2023/01/18 09:12:47;;;;;;;11.95;6.97;;;;;;;5.15;55.09;99512.13;5052484;28;20109;-63
2023/01/18 09:15:17;;;;;;;12.23;7.05;;;;;;;5.33;54.36;99512.13;5062946;28;20048;-63
2023/01/18 09:17:44;;;;;;;15.20;7.10;;;;;;;5.50;53.64;99518.50;5058594;28;20680;-63
2023/01/18 09:20:12;;;;;;;12.38;6.63;;;;;;;5.69;53.24;99511.31;5043881;28;20048;-63
2023/01/18 09:22:41;;;;;;;11.13;6.55;;;;;;;5.82;52.85;99516.50;5048387;28;20050;-63
2023/01/18 09:25:10;;;;;;;10.80;6.65;;;;;;;6.00;52.50;99526.38;5063103;28;20080;-63
2023/01/18 09:27:38;;;;;;;11.13;5.97;;;;;;;6.16;52.59;99519.59;5054858;28;20115;-63
2023/01/18 09:30:09;;;;;;;10.40;5.57;;;;;;;6.31;51.82;99522.69;5043437;28;20774;-63
2023/01/18 09:32:37;;;;;;;16.77;6.18;;;;;;;6.49;51.13;99525.28;5054292;28;20048;-63
2023/01/18 09:35:05;;;;;;;12.20;6.32;;;;;;;6.59;50.93;99526.59;5042564;28;20507;-63
2023/01/18 09:37:33;;;;;;;13.43;6.53;;;;;;;6.67;50.53;99534.28;5055419;28;20104;-62
2023/01/18 09:40:01;;;;;;;13.32;6.60;;;;;;;6.61;50.68;99536.00;5048735;28;20076;-63
2023/01/18 09:42:36;;;;;;;16.10;7.20;;;;;;;6.43;51.58;99538.72;5061698;28;20083;-63
2023/01/18 09:45:05;;;;;;;12.52;6.25;;;;;;;6.20;52.47;99536.78;5041092;28;20408;-63
2023/01/18 09:47:39;;;;;;;10.52;6.40;;;;;;;6.00;52.87;99546.88;5055124;28;20045;-63
2023/01/18 09:50:15;;;;;;;10.95;5.97;;;;;;;5.82;53.63;99555.69;5037974;28;20045;-63
2023/01/18 09:52:50;;;;;;;11.95;6.03;;;;;;;5.68;53.98;99567.53;5060407;28;20080;-63
2023/01/18 09:55:26;;;;;;;11.18;6.70;;;;;;;5.56;54.12;99570.09;5062495;28;20041;-63
2023/01/18 09:58:09;;;;;;;10.52;6.55;;;;;;;5.47;54.61;99569.56;5031877;28;20053;-63
2023/01/18 10:00:41;;;;;;;10.15;5.95;;;;;;;5.39;54.83;99577.03;5041753;28;20053;-63
2023/01/18 10:03:18;;;;;;;8.68;5.82;;;;;;;5.35;55.23;99573.19;5047268;28;20495;-63
2023/01/18 10:05:52;;;;;;;11.90;6.22;;;;;;;5.30;55.25;99581.81;5040872;28;20116;-62
2023/01/18 10:08:24;;;;;;;10.50;6.13;;;;;;;5.25;55.96;99571.00;5047837;28;20045;-63
2023/01/18 10:10:59;;;;;;;8.60;5.40;;;;;;;5.23;56.09;99579.22;5037545;28;20311;-63
2023/01/18 10:13:50;;;;;;;10.70;6.63;;;;;;;5.20;55.73;99586.84;5052997;28;20080;-62
2023/01/18 10:16:19;;;;;;;9.43;5.90;;;;;;;5.12;56.11;99589.78;5040609;28;20087;-62
2023/01/18 10:18:52;;;;;;;10.70;6.30;;;;;;;5.26;56.15;99574.50;5040189;28;20049;-62
2023/01/18 10:21:30;;;;;;;11.63;6.75;;;;;;;5.50;55.38;99578.97;5039245;28;20056;-62
2023/01/18 10:24:19;;;;;;;10.48;5.97;;;;;;;5.74;54.79;99579.97;5040391;28;20052;-62
2023/01/18 10:26:48;;;;;;;18.75;7.80;;;;;;;5.98;54.08;99581.78;5052753;28;20053;-62
2023/01/18 10:29:22;;;;;;;8.50;5.85;;;;;;;6.18;53.98;99582.34;5046463;28;20049;-62
2023/01/18 10:31:57;;;;;;;11.38;5.80;;;;;;;6.38;52.80;99575.94;5054554;28;20136;-62
2023/01/18 10:34:31;;;;;;;9.07;5.40;;;;;;;6.50;53.08;99569.63;5044051;28;20071;-62
2023/01/18 10:37:13;;;;;;;9.15;6.43;;;;;;;6.72;52.52;99580.59;5043260;28;20068;-63
2023/01/18 10:39:47;;;;;;;13.55;6.05;;;;;;;6.88;51.32;99573.81;5055720;28;20045;-67
2023/01/18 10:42:20;;;;;;;15.15;6.25;;;;;;;7.03;51.54;99578.69;5041437;28;20052;-62
2023/01/18 10:44:48;;;;;;;9.00;5.47;;;;;;;7.11;51.73;99578.34;5038642;28;20056;-61
2023/01/18 10:47:17;;;;;;;11.88;5.75;;;;;;;7.14;51.30;99576.03;5045407;28;20041;-61
2023/01/18 10:49:49;;;;;;;10.50;6.32;;;;;;;7.16;50.95;99587.28;5033699;28;20059;-62
2023/01/18 10:52:25;;;;;;;10.32;5.70;;;;;;;7.21;51.63;99588.47;5049040;28;20059;-61
2023/01/18 10:54:56;;;;;;;11.98;5.40;;;;;;;7.25;51.38;99590.44;5044406;28;20052;-62
2023/01/18 10:57:29;;;;;;;11.60;6.22;;;;;;;7.21;51.90;99583.13;5045037;28;20107;-61
2023/01/18 10:59:58;;;;;;;10.27;5.47;;;;;;;7.14;51.23;99583.22;5042400;28;20056;-62
2023/01/18 11:02:29;;;;;;;9.38;5.65;;;;;;;6.92;52.45;99579.50;5033408;28;20049;-61
2023/01/18 11:05:05;;;;;;;10.05;5.03;;;;;;;6.68;53.34;99582.09;5031653;28;20046;-61
2023/01/18 11:07:32;;;;;;;10.52;5.85;;;;;;;6.49;53.49;99581.34;5038518;28;20041;-61
2023/01/18 11:10:08;;;;;;;9.68;5.60;;;;;;;6.32;54.19;99580.34;5037648;28;20088;-61
2023/01/18 11:12:44;;;;;;;9.63;4.90;;;;;;;6.18;54.84;99590.34;5036091;28;20045;-62
2023/01/18 11:15:27;;;;;;;10.23;5.63;;;;;;;6.08;55.19;99595.41;5028976;28;20049;-62
2023/01/18 11:18:10;;;;;;;15.05;6.38;;;;;;;5.98;55.94;99595.13;5034909;28;20046;-61
2023/01/18 11:20:50;;;;;;;11.43;6.13;;;;;;;5.94;55.71;99601.13;5033707;28;20049;-61
2023/01/18 11:23:21;;;;;;;13.18;6.10;;;;;;;5.86;55.98;99595.00;5033765;28;20060;-61
2023/01/18 11:25:55;;;;;;;9.80;5.20;;;;;;;5.82;56.04;99599.16;5036415;28;20077;-60
2023/01/18 11:28:29;;;;;;;12.70;5.65;;;;;;;5.77;56.29;99595.50;5034317;28;20140;-64
2023/01/18 11:30:59;;;;;;;9.25;5.28;;;;;;;5.76;56.46;99596.56;5039556;28;20049;-62
2023/01/18 11:33:28;;;;;;;10.45;5.25;;;;;;;5.71;56.66;99591.88;5037205;28;20406;-64
2023/01/18 11:35:59;;;;;;;8.70;4.78;;;;;;;5.71;56.57;99596.41;5042161;28;20113;-61
2023/01/18 11:38:31;;;;;;;7.63;5.03;;;;;;;5.68;56.86;99588.84;5036937;28;20033;-61
2023/01/18 11:41:04;;;;;;;8.43;4.95;;;;;;;5.66;56.93;99590.91;5034466;28;20057;-62
2023/01/18 11:43:35;;;;;;;9.05;4.30;;;;;;;5.64;57.21;99591.13;5040091;28;20049;-61
2023/01/18 11:46:13;;;;;;;6.80;4.63;;;;;;;5.62;57.11;99597.72;4689493;28;10000104;-62
2023/01/18 11:48:50;;;;;;;9.30;4.95;;;;;;;5.59;57.14;99596.31;5033049;28;20073;-62
2023/01/18 11:51:25;;;;;;;7.13;4.82;;;;;;;5.57;57.17;99593.06;5032707;28;20152;-63
2023/01/18 11:54:00;;;;;;;9.95;5.40;;;;;;;5.60;57.35;99589.13;5041703;28;20092;-62
2023/01/18 11:56:32;;;;;;;9.00;4.75;;;;;;;5.57;57.58;99591.19;5038456;28;20045;-62
2023/01/18 11:59:01;;;;;;;7.28;4.10;;;;;;;5.56;57.47;99588.75;5036621;28;20065;-62
2023/01/18 12:01:51;;;;;;;10.77;4.68;;;;;;;5.60;57.82;99587.28;5039866;28;20091;-62
2023/01/18 12:04:32;;;;;;;10.55;4.47;;;;;;;5.59;57.37;99588.31;5031936;28;20049;-62
2023/01/18 12:07:18;;;;;;;8.07;4.45;;;;;;;5.56;57.63;99586.91;5038635;28;20049;-62
2023/01/18 12:09:51;;;;;;;15.13;5.45;;;;;;;5.56;57.71;99597.56;5035709;28;20077;-62
2023/01/18 12:12:38;;;;;;;11.23;4.47;;;;;;;5.55;57.73;99595.94;5043491;28;20122;-62
2023/01/18 12:15:26;;;;;;;8.07;4.35;;;;;;;5.55;57.96;99600.44;5032769;28;20518;-62
2023/01/18 12:18:12;;;;;;;10.40;4.47;;;;;;;5.55;57.29;99611.09;5037246;28;20125;-62